createdAt,value
2023-01-19T00:01:18.102Z,1.80
2023-01-19T00:03:46.692Z,1.80
2023-01-19T00:06:13.719Z,1.80
2023-01-19T00:08:40.661Z,1.90
2023-01-19T00:11:07.824Z,2.00
2023-01-19T00:13:34.778Z,2.00
2023-01-19T00:16:01.523Z,2.00
2023-01-19T00:18:28.917Z,2.00
2023-01-19T00:20:57.336Z,2.00
2023-01-19T00:23:24.190Z,2.10
2023-01-19T00:25:51.032Z,2.10
2023-01-19T00:28:18.967Z,2.10
2023-01-19T00:30:45.942Z,2.10
2023-01-19T00:33:13.376Z,2.20
2023-01-19T00:35:40.667Z,2.10
2023-01-19T00:38:09.300Z,2.10
2023-01-19T00:40:36.425Z,2.20
2023-01-19T00:43:03.498Z,2.30
2023-01-19T00:45:31.681Z,2.40
2023-01-19T00:47:58.445Z,2.30
2023-01-19T00:50:27.269Z,2.30
2023-01-19T00:52:56.275Z,2.50
2023-01-19T00:55:24.513Z,2.40
2023-01-19T00:57:51.430Z,2.40
2023-01-19T01:00:21.148Z,2.40
2023-01-19T01:02:50.583Z,2.40
2023-01-19T01:05:18.017Z,2.40
2023-01-19T01:07:45.684Z,2.50
2023-01-19T01:10:16.595Z,2.50
2023-01-19T01:12:57.060Z,2.60
2023-01-19T01:15:27.699Z,2.50
2023-01-19T01:17:54.721Z,2.50
2023-01-19T01:20:25.161Z,2.60
2023-01-19T01:22:53.924Z,2.70
2023-01-19T01:25:23.739Z,2.70
2023-01-19T01:27:52.490Z,2.80
2023-01-19T01:30:20.965Z,2.80
2023-01-19T01:32:47.892Z,2.80
2023-01-19T01:35:15.974Z,2.80
2023-01-19T01:37:42.870Z,2.80
2023-01-19T01:40:13.774Z,3.00
2023-01-19T01:42:40.732Z,2.90
2023-01-19T01:45:29.525Z,2.90
2023-01-19T01:48:05.861Z,3.00
2023-01-19T01:50:38.567Z,2.90
2023-01-19T01:53:13.184Z,2.90
2023-01-19T01:55:45.606Z,2.90
2023-01-19T01:58:14.619Z,2.90
2023-01-19T02:00:43.060Z,3.00
2023-01-19T02:03:12.748Z,3.00
2023-01-19T02:05:40.249Z,3.00
2023-01-19T02:08:14.850Z,3.20
2023-01-19T02:10:43.406Z,3.10
2023-01-19T02:13:11.156Z,3.10
2023-01-19T02:15:37.871Z,3.10
2023-01-19T02:18:06.163Z,3.00
2023-01-19T02:20:37.171Z,3.00
2023-01-19T02:23:14.091Z,3.10
2023-01-19T02:25:43.060Z,3.10
2023-01-19T02:28:10.217Z,3.10
2023-01-19T02:30:41.084Z,3.10
2023-01-19T02:33:08.198Z,3.00
2023-01-19T02:35:39.746Z,3.00
2023-01-19T02:38:13.525Z,3.10
2023-01-19T02:40:45.667Z,3.10
2023-01-19T02:43:12.722Z,3.20
2023-01-19T02:45:39.984Z,3.10
2023-01-19T02:48:07.756Z,3.30
2023-01-19T02:50:43.105Z,3.20
2023-01-19T02:53:52.105Z,3.20
2023-01-19T02:57:10.099Z,3.20
2023-01-19T03:00:02.632Z,3.30
2023-01-19T03:02:39.702Z,3.10
2023-01-19T03:05:25.884Z,3.30
2023-01-19T03:08:03.741Z,3.30
2023-01-19T03:10:45.104Z,3.20
2023-01-19T03:13:24.353Z,3.30
2023-01-19T03:15:56.547Z,3.30
2023-01-19T03:18:26.574Z,3.20
2023-01-19T03:20:58.943Z,3.20
2023-01-19T03:23:31.100Z,3.20
2023-01-19T03:26:00.395Z,3.30
2023-01-19T03:28:32.125Z,3.30
2023-01-19T03:31:05.308Z,3.30
2023-01-19T03:33:38.913Z,3.30
2023-01-19T03:36:15.110Z,3.30
2023-01-19T03:38:45.960Z,3.30
2023-01-19T03:41:17.377Z,3.40
2023-01-19T03:43:49.437Z,3.40
2023-01-19T03:46:17.807Z,3.40
2023-01-19T03:48:46.444Z,3.40
2023-01-19T03:51:14.110Z,3.40
2023-01-19T03:53:41.843Z,3.50
2023-01-19T03:56:34.744Z,3.50
2023-01-19T03:59:03.335Z,3.60
2023-01-19T04:01:30.555Z,3.60
2023-01-19T04:03:57.657Z,3.50
2023-01-19T04:06:24.529Z,3.60
2023-01-19T04:08:52.017Z,3.50
2023-01-19T04:11:19.020Z,3.40
2023-01-19T04:13:46.170Z,3.50
2023-01-19T04:16:14.538Z,3.50
2023-01-19T04:18:41.972Z,3.50
2023-01-19T04:21:08.921Z,3.60
2023-01-19T04:23:35.620Z,3.60
2023-01-19T04:26:05.715Z,3.60
2023-01-19T04:28:34.337Z,3.60
2023-01-19T04:31:01.648Z,3.60
2023-01-19T04:33:29.873Z,3.60
2023-01-19T04:35:57.228Z,3.50
2023-01-19T04:38:25.343Z,3.50
2023-01-19T04:40:53.865Z,3.50
2023-01-19T04:43:21.714Z,3.50
2023-01-19T04:45:48.850Z,3.60
2023-01-19T04:48:17.283Z,3.50
2023-01-19T04:50:46.020Z,3.60
2023-01-19T04:53:13.854Z,3.50
2023-01-19T04:55:41.307Z,3.60
2023-01-19T04:58:08.557Z,3.70
2023-01-19T05:00:35.924Z,3.50
2023-01-19T05:03:04.698Z,3.60
2023-01-19T05:05:31.619Z,3.60
2023-01-19T05:08:00.116Z,3.50
2023-01-19T05:10:26.828Z,3.60
2023-01-19T05:13:18.487Z,3.60
2023-01-19T05:15:45.313Z,3.50
2023-01-19T05:18:12.177Z,3.60
2023-01-19T05:20:39.282Z,3.60
2023-01-19T05:23:07.552Z,3.50
2023-01-19T05:25:34.635Z,3.60
2023-01-19T05:28:01.518Z,3.60
2023-01-19T05:30:28.479Z,3.60
2023-01-19T05:32:55.231Z,3.60
2023-01-19T05:35:31.314Z,3.70
2023-01-19T05:38:02.204Z,3.50
2023-01-19T05:40:30.394Z,3.60
2023-01-19T05:42:57.128Z,3.60
2023-01-19T05:45:23.897Z,3.60
2023-01-19T05:47:50.932Z,3.60
2023-01-19T05:50:17.749Z,3.60
2023-01-19T05:52:44.702Z,3.50
2023-01-19T05:55:12.258Z,3.50
2023-01-19T05:57:40.289Z,3.60
2023-01-19T06:00:09.610Z,3.60
2023-01-19T06:02:36.518Z,3.60
2023-01-19T06:05:04.078Z,3.50
2023-01-19T06:07:31.152Z,3.60
2023-01-19T06:09:58.151Z,3.70
2023-01-19T06:12:25.216Z,3.70
2023-01-19T06:14:53.433Z,3.70
2023-01-19T06:17:20.462Z,3.60
2023-01-19T06:19:47.339Z,3.60
2023-01-19T06:22:14.142Z,3.70
2023-01-19T06:24:40.908Z,3.60
2023-01-19T06:27:10.210Z,3.60
2023-01-19T06:29:37.132Z,3.60
2023-01-19T06:32:06.568Z,3.60
2023-01-19T06:34:33.598Z,3.70
2023-01-19T06:37:00.473Z,3.60
2023-01-19T06:39:27.161Z,3.60
2023-01-19T06:41:53.855Z,3.60
2023-01-19T06:44:20.895Z,3.70
2023-01-19T06:46:47.650Z,3.70
2023-01-19T06:49:15.701Z,3.70
2023-01-19T06:51:42.893Z,3.70
2023-01-19T06:54:09.811Z,3.60
2023-01-19T06:56:36.755Z,3.60
2023-01-19T06:59:03.583Z,3.70
2023-01-19T07:01:30.478Z,3.70
2023-01-19T07:03:57.436Z,3.60
2023-01-19T07:06:25.583Z,3.60
2023-01-19T07:08:52.709Z,3.60
2023-01-19T07:11:24.454Z,3.60
2023-01-19T07:13:56.469Z,3.60
2023-01-19T07:16:23.568Z,3.60
2023-01-19T07:18:50.925Z,3.70
2023-01-19T07:21:18.439Z,3.60
2023-01-19T07:23:48.666Z,3.60
2023-01-19T07:26:17.949Z,3.60
2023-01-19T07:28:46.274Z,3.60
2023-01-19T07:31:15.109Z,3.60
2023-01-19T07:33:41.999Z,3.60
2023-01-19T07:36:09.967Z,3.70
2023-01-19T07:38:36.686Z,3.70
2023-01-19T07:41:07.513Z,3.80
2023-01-19T07:43:34.719Z,3.70
2023-01-19T07:46:05.744Z,3.80
2023-01-19T07:48:32.735Z,3.70
2023-01-19T07:51:00.289Z,3.60
2023-01-19T07:53:27.445Z,3.70
2023-01-19T07:55:55.595Z,3.80
2023-01-19T07:58:24.710Z,3.80
2023-01-19T08:00:51.469Z,3.80
2023-01-19T08:03:18.871Z,3.80
2023-01-19T08:05:50.599Z,3.80
2023-01-19T08:08:17.428Z,3.80
2023-01-19T08:10:44.473Z,3.80
2023-01-19T08:13:11.272Z,3.80
2023-01-19T08:15:39.405Z,3.80
2023-01-19T08:18:06.705Z,3.80
2023-01-19T08:20:33.701Z,3.70
2023-01-19T08:23:01.153Z,3.70
2023-01-19T08:25:34.308Z,3.70
2023-01-19T08:28:02.165Z,3.70
2023-01-19T08:30:28.877Z,3.70
2023-01-19T08:32:58.153Z,3.90
2023-01-19T08:35:25.203Z,3.80
2023-01-19T08:37:51.890Z,3.80
2023-01-19T08:40:19.345Z,4.00
2023-01-19T08:42:46.427Z,3.80
2023-01-19T08:45:13.441Z,3.90
2023-01-19T08:47:40.233Z,3.80
2023-01-19T08:50:10.809Z,3.70
2023-01-19T08:52:37.658Z,3.80
2023-01-19T08:55:06.461Z,3.90
2023-01-19T08:57:33.255Z,3.80
2023-01-19T08:59:59.997Z,3.80
2023-01-19T09:02:26.974Z,3.80
2023-01-19T09:04:54.231Z,3.80
2023-01-19T09:07:22.482Z,3.70
2023-01-19T09:09:49.255Z,3.70
2023-01-19T09:12:16.595Z,3.80
2023-01-19T09:14:43.465Z,3.80
2023-01-19T09:17:10.207Z,3.90
2023-01-19T09:19:36.977Z,4.00
2023-01-19T09:22:03.710Z,3.90
2023-01-19T09:24:32.237Z,3.90
2023-01-19T09:26:58.949Z,3.90
2023-01-19T09:29:26.091Z,4.00
2023-01-19T09:31:52.998Z,4.00
2023-01-19T09:34:20.275Z,4.10
2023-01-19T09:36:47.510Z,4.00
2023-01-19T09:39:14.773Z,4.00
2023-01-19T09:41:49.198Z,4.00
2023-01-19T09:44:24.518Z,4.00
2023-01-19T09:46:51.306Z,4.10
2023-01-19T09:49:31.441Z,4.10
2023-01-19T09:51:59.029Z,4.20
2023-01-19T09:54:33.944Z,4.30
2023-01-19T09:57:02.684Z,4.30
2023-01-19T09:59:32.230Z,4.30
2023-01-19T10:02:22.418Z,4.40
2023-01-19T10:04:59.953Z,4.30
2023-01-19T10:07:45.156Z,4.40
2023-01-19T10:10:21.769Z,4.50
2023-01-19T10:13:24.950Z,4.70
2023-01-19T10:16:03.797Z,4.70
2023-01-19T10:18:43.664Z,4.70
2023-01-19T10:21:16.317Z,4.70
2023-01-19T10:23:48.144Z,4.70
2023-01-19T10:26:23.744Z,4.70
2023-01-19T10:29:01.565Z,4.80
2023-01-19T10:31:28.887Z,4.80
2023-01-19T10:33:55.817Z,4.80
2023-01-19T10:36:28.992Z,4.80
2023-01-19T10:38:56.291Z,4.80
2023-01-19T10:41:30.429Z,4.90
2023-01-19T10:44:03.902Z,4.80
2023-01-19T10:46:42.004Z,4.80
2023-01-19T10:49:25.454Z,4.80
2023-01-19T10:51:53.438Z,4.70
2023-01-19T10:54:22.308Z,4.70
2023-01-19T10:56:54.270Z,4.70
2023-01-19T10:59:36.425Z,4.70
2023-01-19T11:02:18.071Z,4.80
2023-01-19T11:04:47.764Z,4.80
2023-01-19T11:07:21.498Z,4.90
2023-01-19T11:10:05.837Z,4.90
2023-01-19T11:12:32.719Z,4.90
2023-01-19T11:15:14.825Z,5.00
2023-01-19T11:17:46.118Z,5.10
2023-01-19T11:20:21.015Z,5.20
2023-01-19T11:22:49.061Z,5.10
2023-01-19T11:25:30.502Z,5.10
2023-01-19T11:27:57.815Z,5.00
2023-01-19T11:30:27.348Z,5.10
2023-01-19T11:32:54.359Z,5.00
2023-01-19T11:35:39.493Z,4.90
2023-01-19T11:38:18.827Z,4.90
2023-01-19T11:40:54.065Z,5.00
2023-01-19T11:43:22.890Z,5.00
2023-01-19T11:45:52.525Z,5.00
2023-01-19T11:48:29.367Z,5.10
2023-01-19T11:51:01.007Z,5.00
2023-01-19T11:53:33.217Z,5.00
2023-01-19T11:56:04.013Z,4.90
2023-01-19T11:58:38.331Z,4.90
2023-01-19T12:01:18.200Z,4.90
2023-01-19T12:03:53.861Z,4.90
2023-01-19T12:06:29.342Z,5.10
2023-01-19T12:09:01.443Z,5.10
2023-01-19T12:11:35.407Z,5.10
2023-01-19T12:14:02.910Z,5.20
2023-01-19T12:16:34.991Z,5.30
2023-01-19T12:19:05.200Z,5.20
2023-01-19T12:21:31.955Z,5.30
2023-01-19T12:24:12.534Z,5.30
2023-01-19T12:26:51.199Z,5.30
2023-01-19T12:29:21.461Z,5.30
2023-01-19T12:32:34.940Z,5.20
2023-01-19T12:35:02.161Z,5.20
2023-01-19T12:37:41.893Z,5.30
2023-01-19T12:40:25.476Z,5.20
2023-01-19T12:42:59.916Z,5.20
2023-01-19T12:45:33.655Z,5.20
2023-01-19T12:48:04.132Z,5.20
2023-01-19T12:50:37.115Z,5.20
2023-01-19T12:53:15.464Z,5.30
2023-01-19T12:55:42.963Z,5.50
2023-01-19T12:58:17.477Z,5.40
2023-01-19T13:00:48.125Z,5.40
2023-01-19T13:03:57.952Z,5.30
2023-01-19T13:07:07.677Z,5.20
2023-01-19T13:09:36.744Z,5.10
2023-01-19T13:12:24.829Z,5.10
2023-01-19T13:15:32.651Z,5.20
2023-01-19T13:18:01.735Z,5.20
2023-01-19T13:20:44.130Z,5.20
2023-01-19T13:23:24.884Z,5.20
2023-01-19T13:25:59.211Z,5.20
2023-01-19T13:28:35.820Z,5.20
2023-01-19T13:31:03.962Z,5.10
2023-01-19T13:33:43.794Z,5.20
2023-01-19T13:36:27.752Z,5.20
2023-01-19T13:38:57.603Z,5.30
2023-01-19T13:41:28.834Z,5.30
2023-01-19T13:44:02.260Z,5.30
2023-01-19T13:46:31.245Z,5.40
2023-01-19T13:49:04.273Z,5.40
2023-01-19T13:51:32.593Z,5.40
2023-01-19T13:54:00.616Z,5.50
2023-01-19T13:56:28.601Z,5.50
2023-01-19T14:02:13.187Z,5.50
2023-01-19T14:04:40.411Z,5.50
2023-01-19T14:07:20.198Z,5.40
2023-01-19T14:09:47.360Z,5.40
2023-01-19T14:12:16.675Z,5.50
2023-01-19T14:14:46.426Z,5.50
2023-01-19T14:17:23.687Z,5.60
2023-01-19T14:19:52.796Z,5.60
2023-01-19T14:22:21.530Z,5.70
2023-01-19T14:24:48.468Z,5.70
2023-01-19T14:27:25.362Z,5.70
2023-01-19T14:29:53.024Z,5.70
2023-01-19T14:32:22.667Z,5.60
2023-01-19T14:34:51.646Z,5.60
2023-01-19T14:37:25.017Z,5.60
2023-01-19T14:39:58.362Z,5.60
2023-01-19T14:42:30.074Z,5.60
2023-01-19T14:45:01.066Z,5.60
2023-01-19T14:47:34.713Z,5.60
2023-01-19T14:50:09.023Z,5.70
2023-01-19T14:52:41.880Z,5.70
2023-01-19T14:55:22.081Z,5.60
2023-01-19T14:57:48.974Z,5.60
2023-01-19T15:00:19.025Z,5.70
2023-01-19T15:02:47.256Z,5.70
2023-01-19T15:05:14.668Z,5.70
2023-01-19T15:07:45.985Z,5.70
2023-01-19T15:10:19.338Z,5.60
2023-01-19T15:12:47.111Z,5.50
2023-01-19T15:15:20.446Z,5.50
2023-01-19T15:17:47.268Z,5.40
2023-01-19T15:20:18.312Z,5.40
2023-01-19T15:22:47.363Z,5.40
2023-01-19T15:25:16.031Z,5.30
2023-01-19T15:27:43.813Z,5.20
2023-01-19T15:30:17.033Z,5.20
2023-01-19T15:32:44.304Z,5.10
2023-01-19T15:35:16.665Z,5.10
2023-01-19T15:37:43.644Z,5.00
2023-01-19T15:40:13.035Z,5.00
2023-01-19T15:42:39.974Z,5.00
2023-01-19T15:45:33.851Z,5.00
2023-01-19T15:48:02.558Z,4.90
2023-01-19T15:50:29.702Z,4.80
2023-01-19T15:52:56.499Z,4.80
2023-01-19T15:55:25.518Z,4.80
2023-01-19T15:57:52.706Z,4.70
2023-01-19T16:00:20.040Z,4.70
2023-01-19T16:02:46.876Z,4.60
2023-01-19T16:05:13.634Z,4.60
2023-01-19T16:07:40.523Z,4.60
2023-01-19T16:10:08.565Z,4.60
2023-01-19T16:12:37.265Z,4.60
2023-01-19T16:15:05.399Z,4.60
2023-01-19T16:17:32.230Z,4.60
2023-01-19T16:19:59.217Z,4.60
2023-01-19T16:22:26.071Z,4.60
2023-01-19T16:24:53.052Z,4.60
2023-01-19T16:27:19.861Z,4.50
2023-01-19T16:29:49.196Z,4.50
2023-01-19T16:32:17.019Z,4.60
2023-01-19T16:34:43.941Z,4.50
2023-01-19T16:37:11.389Z,4.50
2023-01-19T16:39:38.382Z,4.50
2023-01-19T16:42:05.328Z,4.50
2023-01-19T16:44:32.353Z,4.50
2023-01-19T16:47:00.640Z,4.50
2023-01-19T16:49:28.571Z,4.40
2023-01-19T16:51:58.265Z,4.40
2023-01-19T16:54:28.256Z,4.40
2023-01-19T16:56:57.116Z,4.30
2023-01-19T16:59:24.846Z,4.30
2023-01-19T17:01:52.346Z,4.30
2023-01-19T17:04:23.053Z,4.30
2023-01-19T17:06:49.946Z,4.20
2023-01-19T17:09:17.857Z,4.20
2023-01-19T17:11:45.074Z,4.20
2023-01-19T17:14:15.226Z,4.10
2023-01-19T17:16:43.624Z,4.10
2023-01-19T17:19:15.857Z,4.10
2023-01-19T17:21:46.733Z,4.10
2023-01-19T17:24:13.889Z,4.00
2023-01-19T17:26:42.501Z,4.00
2023-01-19T17:29:10.392Z,4.00
2023-01-19T17:31:38.182Z,4.00
2023-01-19T17:34:05.608Z,3.90
2023-01-19T17:36:33.793Z,3.90
2023-01-19T17:39:08.208Z,3.90
2023-01-19T17:41:35.635Z,3.80
2023-01-19T17:44:05.138Z,3.80
2023-01-19T17:46:35.711Z,3.80
2023-01-19T17:49:06.382Z,3.80
2023-01-19T17:51:34.447Z,3.80
2023-01-19T17:54:03.038Z,3.80
2023-01-19T17:56:31.396Z,3.70
2023-01-19T17:58:58.930Z,3.70
2023-01-19T18:01:51.478Z,3.70
2023-01-19T18:04:18.483Z,3.70
2023-01-19T18:06:45.482Z,3.60
2023-01-19T18:09:13.700Z,3.60
2023-01-19T18:11:40.496Z,3.60
2023-01-19T18:14:07.651Z,3.60
2023-01-19T18:16:35.029Z,3.60
2023-01-19T18:19:01.983Z,3.60
2023-01-19T18:21:29.168Z,3.60
2023-01-19T18:24:00.506Z,3.60
2023-01-19T18:26:30.876Z,3.60
2023-01-19T18:28:59.181Z,3.60
2023-01-19T18:31:27.852Z,3.60
2023-01-19T18:33:55.114Z,3.60
2023-01-19T18:36:22.421Z,3.60
2023-01-19T18:38:49.626Z,3.60
2023-01-19T18:41:21.635Z,3.60
2023-01-19T18:43:50.022Z,3.50
2023-01-19T18:46:17.026Z,3.50
2023-01-19T18:48:44.025Z,3.50
2023-01-19T18:51:13.149Z,3.50
2023-01-19T18:53:40.704Z,3.40
2023-01-19T18:56:32.263Z,3.40
2023-01-19T19:01:52.734Z,3.30
2023-01-19T19:04:19.626Z,3.30
2023-01-19T19:06:46.408Z,3.40
2023-01-19T19:09:13.366Z,3.30
2023-01-19T19:11:40.375Z,3.30
2023-01-19T19:14:09.142Z,3.30
2023-01-19T19:16:38.589Z,3.30
2023-01-19T19:19:06.637Z,3.30
2023-01-19T19:21:33.370Z,3.30
2023-01-19T19:24:00.285Z,3.20
2023-01-19T19:26:27.658Z,3.20
2023-01-19T19:28:54.807Z,3.20
2023-01-19T19:31:24.334Z,3.20
2023-01-19T19:33:51.708Z,3.20
2023-01-19T19:36:20.218Z,3.20
2023-01-19T19:38:50.918Z,3.10
2023-01-19T19:41:21.277Z,3.10
2023-01-19T19:43:48.719Z,3.00
2023-01-19T19:46:25.225Z,3.10
2023-01-19T19:48:54.104Z,3.00
2023-01-19T19:51:23.471Z,3.00
2023-01-19T19:54:15.110Z,3.00
2023-01-19T19:56:42.128Z,2.90
2023-01-19T19:59:11.565Z,2.90
2023-01-19T20:01:39.928Z,2.90
2023-01-19T20:04:09.720Z,2.90
2023-01-19T20:06:39.141Z,2.80
2023-01-19T20:09:07.483Z,2.80
2023-01-19T20:11:35.449Z,2.80
2023-01-19T20:14:05.825Z,2.80
2023-01-19T20:16:32.682Z,2.80
2023-01-19T20:19:01.695Z,2.80
2023-01-19T20:21:31.970Z,2.80
2023-01-19T20:24:01.434Z,2.80
2023-01-19T20:26:31.935Z,2.70
2023-01-19T20:29:03.152Z,2.70
2023-01-19T20:31:33.998Z,2.70
2023-01-19T20:34:07.062Z,2.70
2023-01-19T20:36:34.355Z,2.70
2023-01-19T20:39:01.662Z,2.70
2023-01-19T20:41:28.690Z,2.70
2023-01-19T20:43:55.884Z,2.70
2023-01-19T20:46:22.786Z,2.70
2023-01-19T20:48:49.768Z,2.70
2023-01-19T20:51:18.123Z,2.80
2023-01-19T20:56:36.025Z,2.70
2023-01-19T21:01:54.134Z,2.80
2023-01-19T21:04:21.081Z,2.80
2023-01-19T21:06:49.553Z,2.80
2023-01-19T21:09:16.919Z,2.90
2023-01-19T21:11:44.510Z,3.00
2023-01-19T21:14:11.357Z,2.90
2023-01-19T21:16:38.311Z,3.00
2023-01-19T21:19:05.739Z,3.00
2023-01-19T21:21:32.609Z,3.00
2023-01-19T21:24:02.941Z,3.00
2023-01-19T21:26:31.596Z,3.00
2023-01-19T21:28:59.725Z,3.00
2023-01-19T21:31:28.404Z,3.00
2023-01-19T21:33:56.285Z,3.00
2023-01-19T21:36:23.949Z,3.00
2023-01-19T21:38:51.746Z,3.00
2023-01-19T21:41:20.338Z,3.00
2023-01-19T21:43:47.706Z,3.10
2023-01-19T21:46:19.028Z,3.10
2023-01-19T21:48:46.564Z,3.10
2023-01-19T21:51:15.519Z,3.00
2023-01-19T21:53:43.479Z,3.00
2023-01-19T21:56:37.785Z,3.10
2023-01-19T21:59:05.120Z,3.10
2023-01-19T22:01:37.192Z,3.10
2023-01-19T22:04:04.600Z,3.10
2023-01-19T22:06:31.527Z,3.10
2023-01-19T22:08:58.296Z,3.10
2023-01-19T22:11:25.606Z,3.10
2023-01-19T22:13:54.455Z,3.10
2023-01-19T22:16:22.903Z,3.10
2023-01-19T22:18:52.423Z,3.10
2023-01-19T22:21:23.190Z,3.10
2023-01-19T22:23:52.009Z,3.10
2023-01-19T22:26:19.444Z,3.20
2023-01-19T22:28:46.688Z,3.20
2023-01-19T22:31:17.828Z,3.20
2023-01-19T22:33:48.188Z,3.20
2023-01-19T22:36:19.150Z,3.30
2023-01-19T22:38:50.238Z,3.20
2023-01-19T22:41:21.595Z,3.20
2023-01-19T22:43:50.334Z,3.20
2023-01-19T22:46:19.996Z,3.20
2023-01-19T22:48:48.269Z,3.20
2023-01-19T22:51:17.538Z,3.20
2023-01-19T22:56:39.183Z,3.20
2023-01-19T22:59:11.451Z,3.20
2023-01-19T23:01:43.602Z,3.20
2023-01-19T23:04:14.197Z,3.20
2023-01-19T23:06:41.780Z,3.20
2023-01-19T23:09:13.258Z,3.20
2023-01-19T23:11:42.881Z,3.20
2023-01-19T23:14:14.765Z,3.20
2023-01-19T23:16:43.925Z,3.20
2023-01-19T23:19:12.573Z,3.20
2023-01-19T23:21:40.944Z,3.20
2023-01-19T23:24:08.776Z,3.20
2023-01-19T23:26:36.705Z,3.20
2023-01-19T23:29:07.343Z,3.20
2023-01-19T23:31:37.741Z,3.20
2023-01-19T23:34:09.179Z,3.20
2023-01-19T23:36:39.131Z,3.10
2023-01-19T23:39:08.828Z,3.10
2023-01-19T23:41:35.847Z,3.10
2023-01-19T23:44:04.176Z,3.00
2023-01-19T23:46:31.305Z,3.00
2023-01-19T23:48:59.157Z,3.00
2023-01-19T23:51:30.364Z,3.00
2023-01-19T23:56:50.492Z,2.80
2023-01-19T23:59:17.603Z,2.80
